Time;durP1;ratioP1;P1;durP2;ratioP2;P2;SDS_P1;SDS_P2;PMS_P1;PMS_P2;Temp;Humidity;BMP_temperature;BMP_pressure;BME280_temperature;BME280_humidity;BME280_pressure;Samples;Min_cycle;Max_cycle;Signal;HPM_P1;HPM_P2
2022/10/02 00:00:11;;;;;;;2.63;0.55;;;;;;;;;;4983209;28;20042;-70
2022/10/02 00:02:45;;;;;;;4.10;0.67;;;;;;;;;;4986386;28;20054;-70
2022/10/02 00:05:15;;;;;;;4.28;0.77;;;;;;;;;;4986713;28;20391;-70
2022/10/02 00:07:47;;;;;;;2.90;0.70;;;;;;;;;;4990876;28;20049;-70
2022/10/02 00:10:30;;;;;;;;;;;;;;;;;;4989753;28;20185;-70
2022/10/02 00:13:00;;;;;;;3.60;1.45;;;;;;;;;;4989234;28;20036;-70
2022/10/02 00:15:28;;;;;;;2.67;0.95;;;;;;;;;;4988172;28;20144;-70
2022/10/02 00:17:57;;;;;;;2.58;0.70;;;;;;;;;;4983334;28;20495;-70
2022/10/02 00:20:36;;;;;;;1.33;0.80;;;;;;;;;;4981371;28;20046;-70
2022/10/02 00:23:20;;;;;;;3.38;0.52;;;;;;;;;;4981533;28;20109;-70
2022/10/02 00:25:51;;;;;;;4.53;0.70;;;;;;;;;;4990075;28;20141;-70
2022/10/02 00:28:35;;;;;;;1.70;0.55;;;;;;;;;;4983483;28;20050;-70
2022/10/02 00:31:18;;;;;;;1.40;0.70;;;;;;;;;;4982873;28;20061;-71
2022/10/02 00:33:59;;;;;;;4.05;0.82;;;;;;;;;;4984721;28;20795;-70
2022/10/02 00:36:41;;;;;;;2.55;0.60;;;;;;;;;;4973539;28;20104;-70
2022/10/02 00:39:12;;;;;;;;;;;;;;;;;;4981579;28;20166;-70
2022/10/02 00:42:29;;;;;;;4.30;0.90;;;;;;;;;;4980617;28;19957;-70
2022/10/02 00:45:32;;;;;;;0.93;0.80;;;;;;;;;;4984417;28;20467;-70
2022/10/02 00:48:16;;;;;;;;;;;;;;;;;;4997507;28;20133;-70
2022/10/02 00:50:51;;;;;;;2.85;0.93;;;;;;;;;;4984757;28;19971;-70
2022/10/02 00:53:37;;;;;;;2.97;0.77;;;;;;;;;;4981971;28;20050;-70
2022/10/02 00:56:21;;;;;;;4.68;0.90;;;;;;;;;;4971741;28;20089;-70
2022/10/02 00:58:47;;;;;;;2.10;0.90;;;;;;;;;;4975579;28;20125;-70
2022/10/02 01:01:18;;;;;;;2.72;0.85;;;;;;;;;;4982842;28;20148;-71
2022/10/02 01:03:52;;;;;;;4.78;1.00;;;;;;;;;;4987570;28;20730;-70
2022/10/02 01:06:21;;;;;;;3.45;0.68;;;;;;;;;;4988594;28;20046;-70
2022/10/02 01:08:46;;;;;;;5.63;0.88;;;;;;;;;;4984310;28;20388;-70
2022/10/02 01:11:12;;;;;;;2.88;0.88;;;;;;;;;;4981224;28;20891;-70
2022/10/02 01:13:38;;;;;;;3.75;1.33;;;;;;;;;;4987900;28;20764;-70
2022/10/02 01:16:13;;;;;;;6.75;1.00;;;;;;;;;;4982912;28;20499;-70
2022/10/02 01:18:39;;;;;;;2.42;0.90;;;;;;;;;;4985647;28;20050;-70
2022/10/02 01:21:13;;;;;;;5.30;0.88;;;;;;;;;;4979230;28;20046;-70
2022/10/02 01:24:01;;;;;;;2.60;0.60;;;;;;;;;;4987494;28;20144;-70
2022/10/02 01:26:27;;;;;;;3.45;0.90;;;;;;;;;;4986693;28;20041;-70
2022/10/02 01:28:52;;;;;;;3.33;0.80;;;;;;;;;;4992155;28;20048;-70
2022/10/02 01:31:18;;;;;;;2.65;0.77;;;;;;;;;;4981897;28;20495;-70
2022/10/02 01:33:48;;;;;;;6.82;1.40;;;;;;;;;;4987481;28;20104;-71
2022/10/02 01:36:15;;;;;;;1.40;0.60;;;;;;;;;;4988864;28;20042;-70
2022/10/02 01:38:41;;;;;;;5.47;1.00;;;;;;;;;;4980985;28;20050;-70
2022/10/02 01:41:10;;;;;;;1.10;0.68;;;;;;;;;;4980883;28;20050;-71
2022/10/02 01:43:44;;;;;;;4.38;1.10;;;;;;;;;;4982121;28;20046;-71
2022/10/02 01:46:26;;;;;;;2.72;0.80;;;;;;;;;;4984505;28;20069;-70
2022/10/02 01:49:03;;;;;;;5.30;1.27;;;;;;;;;;4996073;28;20049;-71
2022/10/02 01:51:38;;;;;;;3.42;0.80;;;;;;;;;;5003357;28;20123;-71
2022/10/02 01:54:06;;;;;;;2.88;0.90;;;;;;;;;;4985489;28;20058;-70
2022/10/02 01:56:59;;;;;;;2.90;0.98;;;;;;;;;;4983892;28;21243;-69
2022/10/02 01:59:28;;;;;;;3.97;0.90;;;;;;;;;;4986959;28;20042;-69
2022/10/02 02:02:19;;;;;;;3.80;0.90;;;;;;;;;;4990199;28;20058;-69
2022/10/02 02:05:06;;;;;;;0.90;0.65;;;;;;;;;;4987393;28;20046;-69
2022/10/02 02:07:47;;;;;;;4.45;1.00;;;;;;;;;;4989604;28;20104;-69
2022/10/02 02:10:16;;;;;;;4.80;1.00;;;;;;;;;;4972396;28;20492;-69
2022/10/02 02:12:55;;;;;;;2.20;0.85;;;;;;;;;;4986501;28;20210;-69
2022/10/02 02:16:02;;;;;;;3.72;1.23;;;;;;;;;;4991330;28;20042;-69
2022/10/02 02:18:36;;;;;;;2.63;1.00;;;;;;;;;;4929919;28;20043;-69
2022/10/02 02:21:14;;;;;;;6.20;1.00;;;;;;;;;;4980247;28;20559;-69
2022/10/02 02:23:41;;;;;;;3.67;1.10;;;;;;;;;;4989394;28;20042;-69
2022/10/02 02:26:11;;;;;;;5.05;1.17;;;;;;;;;;4984784;28;20511;-69
2022/10/02 02:28:49;;;;;;;6.63;0.90;;;;;;;;;;4989650;28;20062;-69
2022/10/02 02:31:20;;;;;;;3.05;0.90;;;;;;;;;;4983973;28;20046;-69
2022/10/02 02:33:51;;;;;;;4.93;1.00;;;;;;;;;;4986660;28;20444;-69
2022/10/02 02:36:20;;;;;;;;;;;;;;;;;;4991510;28;20455;-69
2022/10/02 02:38:53;;;;;;;1.25;0.93;;;;;;;;;;4983508;28;19922;-68
2022/10/02 02:41:25;;;;;;;3.13;0.88;;;;;;;;;;4991894;28;20039;-69
2022/10/02 02:43:56;;;;;;;4.72;0.98;;;;;;;;;;4985461;28;20069;-69
2022/10/02 02:50:02;;;;;;;2.00;0.98;;;;;;;;;;4972022;28;20062;-69
2022/10/02 02:52:44;;;;;;;6.45;1.13;;;;;;;;;;4991132;28;20077;-69
2022/10/02 02:55:20;;;;;;;3.03;1.23;;;;;;;;;;4983798;28;20487;-69
2022/10/02 02:58:03;;;;;;;7.38;1.02;;;;;;;;;;4985496;28;20050;-69
2022/10/02 03:00:28;;;;;;;9.10;1.05;;;;;;;;;;4986315;28;20929;-69
2022/10/02 03:02:54;;;;;;;4.15;0.93;;;;;;;;;;5000645;28;20038;-68
2022/10/02 03:05:21;;;;;;;1.27;0.60;;;;;;;;;;4983050;28;20146;-68
2022/10/02 03:07:54;;;;;;;1.90;0.80;;;;;;;;;;4982732;28;20050;-69
2022/10/02 03:10:47;;;;;;;3.80;0.95;;;;;;;;;;4989731;28;20054;-68
2022/10/02 03:13:37;;;;;;;3.22;0.85;;;;;;;;;;4985632;28;20133;-68
2022/10/02 03:16:27;;;;;;;3.88;0.98;;;;;;;;;;4978969;28;20042;-69
2022/10/02 03:19:06;;;;;;;3.70;0.73;;;;;;;;;;4991277;28;20046;-69
2022/10/02 03:21:44;;;;;;;4.05;0.90;;;;;;;;;;4982767;28;20054;-68
2022/10/02 03:24:31;;;;;;;6.78;1.10;;;;;;;;;;4981959;28;20077;-69
2022/10/02 03:27:11;;;;;;;1.75;0.90;;;;;;;;;;4993028;28;20085;-68
2022/10/02 03:30:01;;;;;;;3.13;0.80;;;;;;;;;;4981596;28;20134;-69
2022/10/02 03:32:28;;;;;;;4.18;0.70;;;;;;;;;;4986990;28;20138;-68
2022/10/02 03:34:56;;;;;;;2.90;0.95;;;;;;;;;;4997093;28;20056;-68
2022/10/02 03:37:23;;;;;;;8.32;0.80;;;;;;;;;;4989238;28;20050;-68
2022/10/02 03:39:50;;;;;;;5.43;0.90;;;;;;;;;;4981024;28;20438;-68
2022/10/02 03:42:23;;;;;;;5.90;1.02;;;;;;;;;;4989543;28;20141;-68
2022/10/02 03:44:49;;;;;;;1.67;0.80;;;;;;;;;;4985031;28;20133;-68
2022/10/02 03:47:15;;;;;;;3.50;0.88;;;;;;;;;;4988758;28;20037;-69
2022/10/02 03:49:40;;;;;;;3.38;0.90;;;;;;;;;;4992307;28;20084;-68
2022/10/02 03:52:06;;;;;;;8.45;1.10;;;;;;;;;;4990386;28;20062;-69
2022/10/02 03:54:37;;;;;;;3.70;0.75;;;;;;;;;;4981692;28;20042;-68
2022/10/02 03:57:07;;;;;;;6.88;1.17;;;;;;;;;;4990455;28;20052;-69
2022/10/02 03:59:41;;;;;;;3.05;0.70;;;;;;;;;;4994278;28;20136;-69
2022/10/02 04:02:21;;;;;;;2.47;1.00;;;;;;;;;;4972572;28;20092;-68
2022/10/02 04:05:07;;;;;;;6.10;0.60;;;;;;;;;;4978765;28;20418;-68
2022/10/02 04:07:38;;;;;;;5.63;1.20;;;;;;;;;;4990810;28;20089;-69
2022/10/02 04:10:19;;;;;;;5.43;0.77;;;;;;;;;;4976688;28;20418;-68
2022/10/02 04:12:50;;;;;;;2.85;0.88;;;;;;;;;;4988338;28;20276;-68
2022/10/02 04:15:22;;;;;;;2.50;0.95;;;;;;;;;;4985776;28;20165;-69
2022/10/02 04:17:56;;;;;;;5.07;1.08;;;;;;;;;;4980914;28;20120;-69
2022/10/02 04:20:44;;;;;;;2.95;1.00;;;;;;;;;;4988414;28;20042;-68
2022/10/02 04:23:34;;;;;;;3.63;1.00;;;;;;;;;;4996152;28;20050;-68
2022/10/02 04:26:32;;;;;;;3.60;0.70;;;;;;;;;;4979511;28;20113;-68
2022/10/02 04:29:14;;;;;;;3.85;1.00;;;;;;;;;;4982273;28;20058;-69
2022/10/02 04:31:39;;;;;;;5.07;0.88;;;;;;;;;;4995864;28;20050;-68
2022/10/02 04:34:06;;;;;;;4.35;1.08;;;;;;;;;;4982612;28;20050;-69
2022/10/02 04:37:09;;;;;;;4.68;1.80;;;;;;;;;;4988680;28;20112;-69
2022/10/02 04:39:50;;;;;;;5.63;0.90;;;;;;;;;;4988645;28;20265;-69
2022/10/02 04:42:40;;;;;;;2.97;0.90;;;;;;;;;;4975548;28;20145;-69
2022/10/02 04:45:30;;;;;;;5.97;0.82;;;;;;;;;;4982498;28;20066;-69
2022/10/02 04:48:19;;;;;;;7.75;1.13;;;;;;;;;;4980315;28;20049;-69
2022/10/02 04:50:50;;;;;;;4.53;1.15;;;;;;;;;;4974513;28;20050;-70
2022/10/02 04:53:24;;;;;;;5.18;0.90;;;;;;;;;;4989164;28;20553;-69
2022/10/02 04:56:14;;;;;;;2.88;0.88;;;;;;;;;;4983789;28;20050;-68
2022/10/02 04:59:02;;;;;;;3.30;0.90;;;;;;;;;;4987522;28;20042;-69
2022/10/02 05:01:41;;;;;;;5.85;1.08;;;;;;;;;;4985926;28;20088;-69
2022/10/02 05:04:23;;;;;;;1.02;0.80;;;;;;;;;;4962468;28;20081;-68
2022/10/02 05:07:15;;;;;;;4.22;1.27;;;;;;;;;;4985182;28;20502;-69
2022/10/02 05:09:53;;;;;;;5.47;0.90;;;;;;;;;;4943160;28;20554;-69
2022/10/02 05:12:56;;;;;;;3.83;1.00;;;;;;;;;;4980108;28;20585;-69
2022/10/02 05:15:28;;;;;;;2.72;0.90;;;;;;;;;;4995297;28;20041;-68
2022/10/02 05:18:10;;;;;;;4.50;1.10;;;;;;;;;;4980166;28;20554;-69
2022/10/02 05:21:01;;;;;;;9.20;1.27;;;;;;;;;;4985714;28;20046;-69
2022/10/02 05:23:35;;;;;;;4.28;1.17;;;;;;;;;;4986068;28;20069;-69
2022/10/02 05:26:05;;;;;;;6.53;0.85;;;;;;;;;;4990210;28;20064;-68
2022/10/02 05:28:34;;;;;;;3.75;0.88;;;;;;;;;;4982776;28;20117;-69
2022/10/02 05:31:22;;;;;;;4.20;1.10;;;;;;;;;;4987262;28;20058;-69
2022/10/02 05:33:50;;;;;;;5.88;1.00;;;;;;;;;;4990937;28;20055;-69
2022/10/02 05:36:33;;;;;;;5.40;1.30;;;;;;;;;;4996937;28;20480;-69
2022/10/02 05:39:25;;;;;;;4.28;1.02;;;;;;;;;;4991969;28;20050;-68
2022/10/02 05:42:19;;;;;;;1.50;0.70;;;;;;;;;;4983881;28;20057;-69
2022/10/02 05:44:51;;;;;;;5.15;1.05;;;;;;;;;;4964451;28;20057;-69
2022/10/02 05:47:21;;;;;;;;;;;;;;;;;;4994837;28;20038;-69
2022/10/02 05:49:52;;;;;;;3.67;0.80;;;;;;;;;;4992241;28;19925;-69
2022/10/02 05:52:22;;;;;;;5.07;1.00;;;;;;;;;;4991177;28;20046;-69
2022/10/02 05:54:55;;;;;;;2.60;0.95;;;;;;;;;;4989766;28;20073;-68
2022/10/02 05:57:35;;;;;;;5.32;1.00;;;;;;;;;;4992931;28;20068;-69
2022/10/02 06:00:05;;;;;;;7.07;1.00;;;;;;;;;;4999196;28;20050;-69
2022/10/02 06:02:59;;;;;;;7.25;1.23;;;;;;;;;;4988327;28;20046;-69
2022/10/02 06:05:49;;;;;;;3.55;1.20;;;;;;;;;;4986236;28;20080;-68
2022/10/02 06:08:21;;;;;;;4.70;1.02;;;;;;;;;;4976277;28;20494;-69
2022/10/02 06:10:54;;;;;;;3.83;1.13;;;;;;;;;;4986653;28;20054;-69
2022/10/02 06:13:34;;;;;;;4.95;0.95;;;;;;;;;;4985844;28;20050;-69
2022/10/02 06:16:26;;;;;;;5.60;1.55;;;;;;;;;;4984427;28;20073;-69
2022/10/02 06:18:57;;;;;;;5.70;1.00;;;;;;;;;;4985597;28;20483;-69
2022/10/02 06:21:47;;;;;;;5.45;1.75;;;;;;;;;;4985839;28;20054;-70
2022/10/02 06:24:20;;;;;;;4.68;1.25;;;;;;;;;;4975344;28;20057;-69
2022/10/02 06:26:59;;;;;;;6.93;1.45;;;;;;;;;;4990420;28;20331;-70
2022/10/02 06:29:38;;;;;;;6.03;1.10;;;;;;;;;;4985411;28;20427;-70
2022/10/02 06:32:23;;;;;;;6.85;1.30;;;;;;;;;;4982662;28;20058;-70
2022/10/02 06:34:49;;;;;;;3.35;1.25;;;;;;;;;;4984592;28;20053;-70
2022/10/02 06:37:36;;;;;;;3.05;1.33;;;;;;;;;;4984542;28;20694;-70
2022/10/02 06:40:16;;;;;;;3.72;1.20;;;;;;;;;;4984948;28;21204;-70
2022/10/02 06:43:16;;;;;;;5.70;0.95;;;;;;;;;;4984071;28;20057;-70
2022/10/02 06:45:45;;;;;;;5.82;1.20;;;;;;;;;;4986505;28;20062;-69
2022/10/02 06:48:23;;;;;;;4.50;1.02;;;;;;;;;;4982078;28;20053;-70
2022/10/02 06:50:57;;;;;;;2.78;0.93;;;;;;;;;;4982889;28;20052;-70
2022/10/02 06:53:53;;;;;;;5.93;1.35;;;;;;;;;;4985156;28;20046;-70
2022/10/02 06:56:40;;;;;;;1.52;1.20;;;;;;;;;;4979517;28;20491;-70
2022/10/02 06:59:11;;;;;;;4.97;1.42;;;;;;;;;;4964256;28;20050;-70
2022/10/02 07:01:46;;;;;;;3.15;1.08;;;;;;;;;;4984724;28;20492;-69
2022/10/02 07:04:50;;;;;;;4.22;1.30;;;;;;;;;;4968969;28;20633;-70
2022/10/02 07:07:39;;;;;;;8.32;1.58;;;;;;;;;;4982896;28;20112;-70
2022/10/02 07:10:16;;;;;;;7.00;1.35;;;;;;;;;;4980948;28;20050;-70
2022/10/02 07:13:11;;;;;;;5.55;1.05;;;;;;;;;;4982970;28;20073;-70
2022/10/02 07:15:56;;;;;;;6.25;1.50;;;;;;;;;;4984675;28;20054;-70
2022/10/02 07:19:01;;;;;;;5.40;1.38;;;;;;;;;;4921907;28;20144;-69
2022/10/02 07:21:42;;;;;;;7.15;1.30;;;;;;;;;;4980234;28;20042;-70
2022/10/02 07:24:38;;;;;;;7.03;1.45;;;;;;;;;;4947461;28;20052;-70
2022/10/02 07:27:19;;;;;;;5.78;1.33;;;;;;;;;;4981466;28;20136;-70
2022/10/02 07:30:00;;;;;;;6.17;1.40;;;;;;;;;;4980220;28;20088;-70
2022/10/02 07:32:48;;;;;;;4.93;1.20;;;;;;;;;;4980916;28;20042;-69
2022/10/02 07:35:42;;;;;;;4.43;1.20;;;;;;;;;;4980470;28;20105;-70
2022/10/02 07:38:17;;;;;;;3.67;1.20;;;;;;;;;;4970788;28;20081;-70
2022/10/02 07:41:09;;;;;;;6.45;1.45;;;;;;;;;;4966178;28;20367;-70
2022/10/02 07:43:37;;;;;;;;;;;;;;;;;;4983100;28;20073;-70
2022/10/02 07:46:26;;;;;;;4.45;1.10;;;;;;;;;;4981741;28;20421;-70
2022/10/02 07:48:54;;;;;;;5.43;1.30;;;;;;;;;;4984908;28;20061;-70
2022/10/02 07:54:15;;;;;;;5.30;1.35;;;;;;;;;;4979850;28;20492;-69
2022/10/02 07:56:44;;;;;;;4.80;1.10;;;;;;;;;;4973584;28;20112;-70
2022/10/02 07:59:14;;;;;;;3.45;1.23;;;;;;;;;;4982486;28;20046;-70
2022/10/02 08:01:42;;;;;;;4.03;1.27;;;;;;;;;;4985086;28;20038;-70
2022/10/02 08:04:21;;;;;;;3.63;1.20;;;;;;;;;;4982341;28;20077;-70
2022/10/02 08:06:47;;;;;;;3.28;1.38;;;;;;;;;;4987987;28;20136;-70
2022/10/02 08:09:19;;;;;;;4.75;1.10;;;;;;;;;;4983655;28;20042;-70
2022/10/02 08:12:04;;;;;;;5.30;1.60;;;;;;;;;;4983749;28;20410;-70
2022/10/02 08:14:40;;;;;;;5.30;1.38;;;;;;;;;;4982769;28;20052;-70
2022/10/02 08:17:28;;;;;;;8.25;1.83;;;;;;;;;;4986488;28;21226;-70
2022/10/02 08:20:01;;;;;;;4.25;1.10;;;;;;;;;;4978968;28;20054;-70
2022/10/02 08:22:39;;;;;;;7.38;1.40;;;;;;;;;;4987081;28;20049;-70
2022/10/02 08:25:25;;;;;;;2.80;2.05;;;;;;;;;;4984075;28;20049;-70
2022/10/02 08:28:29;;;;;;;7.75;2.00;;;;;;;;;;4985449;28;20053;-70
2022/10/02 08:30:56;;;;;;;6.63;1.30;;;;;;;;;;4944769;28;20077;-70
2022/10/02 08:33:21;;;;;;;2.72;0.93;;;;;;;;;;4991101;28;20297;-71
2022/10/02 08:36:15;;;;;;;5.47;1.20;;;;;;;;;;4981025;28;20500;-70
2022/10/02 08:38:46;;;;;;;8.57;1.25;;;;;;;;;;4980672;28;20081;-70
2022/10/02 08:41:30;;;;;;;4.40;1.58;;;;;;;;;;4980900;28;20038;-71
2022/10/02 08:44:05;;;;;;;3.55;1.30;;;;;;;;;;4993359;28;20065;-70
2022/10/02 08:46:46;;;;;;;2.30;1.38;;;;;;;;;;4987665;28;20136;-69
2022/10/02 08:49:49;;;;;;;5.05;1.30;;;;;;;;;;4980955;28;20470;-71
2022/10/02 08:52:49;;;;;;;1.88;1.10;;;;;;;;;;4975771;28;20141;-71
2022/10/02 08:55:32;;;;;;;5.15;1.30;;;;;;;;;;4981279;28;21655;-69
2022/10/02 08:58:19;;;;;;;7.03;1.20;;;;;;;;;;4984211;28;20049;-71
2022/10/02 09:01:02;;;;;;;4.75;1.20;;;;;;;;;;4982875;28;20516;-70
2022/10/02 09:03:53;;;;;;;5.13;1.20;;;;;;;;;;4983603;28;20042;-70
2022/10/02 09:06:49;;;;;;;4.20;1.30;;;;;;;;;;4965459;28;20057;-71
2022/10/02 09:09:28;;;;;;;5.47;1.30;;;;;;;;;;4980601;28;20046;-71
2022/10/02 09:11:58;;;;;;;8.73;1.73;;;;;;;;;;4980042;28;21326;-70
2022/10/02 09:14:44;;;;;;;3.58;1.42;;;;;;;;;;4980889;28;20080;-71
2022/10/02 09:17:22;;;;;;;4.90;1.50;;;;;;;;;;4984094;28;21005;-70
2022/10/02 09:19:59;;;;;;;9.80;1.90;;;;;;;;;;4978679;28;20042;-70
2022/10/02 09:22:55;;;;;;;7.15;1.98;;;;;;;;;;4985736;28;20209;-71
2022/10/02 09:25:37;;;;;;;9.27;1.90;;;;;;;;;;4979316;28;20042;-71
2022/10/02 09:28:41;;;;;;;3.80;1.73;;;;;;;;;;4986654;28;20060;-70
2022/10/02 09:31:32;;;;;;;3.00;1.50;;;;;;;;;;4979451;28;21093;-70
2022/10/02 09:34:35;;;;;;;5.60;1.83;;;;;;;;;;4982473;28;20753;-70
2022/10/02 09:37:28;;;;;;;3.53;1.35;;;;;;;;;;4983280;28;20051;-70
2022/10/02 09:39:59;;;;;;;1.80;1.27;;;;;;;;;;4979379;28;20054;-71
2022/10/02 09:42:40;;;;;;;2.70;1.42;;;;;;;;;;4981576;28;20464;-69
2022/10/02 09:45:32;;;;;;;7.18;1.65;;;;;;;;;;4978490;28;20132;-70
2022/10/02 09:48:03;;;;;;;4.95;1.75;;;;;;;;;;4984212;28;20053;-70
2022/10/02 09:50:41;;;;;;;;;;;;;;;;;;4991461;28;20081;-70
2022/10/02 09:53:25;;;;;;;6.03;1.55;;;;;;;;;;4979936;28;19964;-70
2022/10/02 09:56:09;;;;;;;4.20;1.50;;;;;;;;;;4982697;28;20047;-69
2022/10/02 09:59:12;;;;;;;9.55;1.95;;;;;;;;;;4983192;28;20058;-70
2022/10/02 10:02:11;;;;;;;3.42;1.48;;;;;;;;;;4979205;28;20043;-70
2022/10/02 10:05:02;;;;;;;5.93;1.50;;;;;;;;;;4985703;28;20093;-70
2022/10/02 10:07:36;;;;;;;4.43;1.65;;;;;;;;;;4983168;28;20046;-70
2022/10/02 10:10:20;;;;;;;3.38;1.38;;;;;;;;;;4982824;28;20514;-70
2022/10/02 10:13:06;;;;;;;5.53;1.52;;;;;;;;;;4978613;28;20061;-70
2022/10/02 10:15:48;;;;;;;8.95;1.70;;;;;;;;;;4985355;28;20046;-70
2022/10/02 10:18:29;;;;;;;1.63;1.27;;;;;;;;;;4951463;28;20093;-69
2022/10/02 10:21:32;;;;;;;6.75;2.05;;;;;;;;;;4981527;28;20054;-70
2022/10/02 10:24:19;;;;;;;5.78;2.13;;;;;;;;;;4982541;28;20069;-70
2022/10/02 10:27:21;;;;;;;5.38;1.40;;;;;;;;;;4987909;28;20121;-70
2022/10/02 10:30:10;;;;;;;4.80;1.40;;;;;;;;;;4987157;28;20038;-70
2022/10/02 10:32:54;;;;;;;4.10;1.92;;;;;;;;;;4987103;28;20052;-70
2022/10/02 10:35:44;;;;;;;6.13;1.50;;;;;;;;;;4983997;28;20042;-70
2022/10/02 10:38:50;;;;;;;3.97;1.60;;;;;;;;;;4983204;28;20050;-71
2022/10/02 10:41:54;;;;;;;4.63;1.65;;;;;;;;;;4984883;28;20034;-71
2022/10/02 10:44:35;;;;;;;2.97;1.60;;;;;;;;;;4967095;28;20068;-71
2022/10/02 10:47:19;;;;;;;5.13;1.60;;;;;;;;;;4983874;28;20050;-71
2022/10/02 10:50:02;;;;;;;5.38;2.00;;;;;;;;;;4968095;28;20549;-71
2022/10/02 10:53:02;;;;;;;3.65;1.50;;;;;;;;;;4983182;28;20054;-71
2022/10/02 10:55:46;;;;;;;4.13;1.60;;;;;;;;;;4985213;28;20054;-71
2022/10/02 10:58:23;;;;;;;8.57;2.15;;;;;;;;;;4964679;28;20232;-71
2022/10/02 11:01:17;;;;;;;6.63;2.10;;;;;;;;;;4984133;28;20050;-71
2022/10/02 11:03:43;;;;;;;4.53;1.60;;;;;;;;;;4980358;28;20038;-71
2022/10/02 11:06:36;;;;;;;3.08;1.40;;;;;;;;;;4965329;28;20053;-71
2022/10/02 11:09:03;;;;;;;5.50;1.50;;;;;;;;;;4984027;28;20046;-72
2022/10/02 11:11:40;;;;;;;2.95;1.40;;;;;;;;;;4983079;28;20058;-72
2022/10/02 11:14:37;;;;;;;3.28;1.40;;;;;;;;;;4983434;28;20081;-71
2022/10/02 11:17:24;;;;;;;2.78;1.60;;;;;;;;;;4985315;28;20529;-72
2022/10/02 11:20:22;;;;;;;1.75;1.20;;;;;;;;;;4976959;28;20516;-71
2022/10/02 11:23:29;;;;;;;3.97;1.52;;;;;;;;;;4983954;28;20042;-72
2022/10/02 11:26:11;;;;;;;2.10;1.17;;;;;;;;;;4980641;28;20116;-72
2022/10/02 11:29:04;;;;;;;2.88;1.50;;;;;;;;;;4984032;28;20132;-70
2022/10/02 11:31:57;;;;;;;2.28;1.33;;;;;;;;;;4985530;28;20037;-72
2022/10/02 11:35:02;;;;;;;2.72;1.30;;;;;;;;;;4962677;28;20145;-71
2022/10/02 11:38:18;;;;;;;2.13;1.60;;;;;;;;;;4985121;28;20046;-72
2022/10/02 11:41:12;;;;;;;2.45;1.27;;;;;;;;;;4938671;28;20053;-71
2022/10/02 11:43:44;;;;;;;2.17;1.40;;;;;;;;;;4984593;28;20042;-74
2022/10/02 11:46:32;;;;;;;2.47;1.40;;;;;;;;;;4979799;28;20061;-71
2022/10/02 11:49:24;;;;;;;4.05;1.23;;;;;;;;;;4986421;28;20960;-71
2022/10/02 11:52:10;;;;;;;1.95;1.40;;;;;;;;;;4990992;28;20061;-71
2022/10/02 11:54:36;;;;;;;2.92;1.20;;;;;;;;;;4981842;28;20050;-71
2022/10/02 11:57:22;;;;;;;2.13;1.20;;;;;;;;;;4982140;28;20133;-71
2022/10/02 12:00:18;;;;;;;2.00;0.98;;;;;;;;;;4979041;28;20096;-71
2022/10/02 12:03:00;;;;;;;13.35;1.05;;;;;;;;;;4984258;28;20054;-71
2022/10/02 12:06:09;;;;;;;1.52;0.88;;;;;;;;;;4987672;28;20070;-71
2022/10/02 12:08:45;;;;;;;1.90;0.60;;;;;;;;;;4946378;28;20133;-71
2022/10/02 12:11:20;;;;;;;1.40;0.88;;;;;;;;;;4981129;28;20451;-71
2022/10/02 12:14:04;;;;;;;1.63;0.98;;;;;;;;;;4983976;28;20135;-71
2022/10/02 12:16:54;;;;;;;3.20;0.55;;;;;;;;;;4980563;28;20046;-72
2022/10/02 12:19:19;;;;;;;2.63;0.80;;;;;;;;;;4980230;28;20058;-71
2022/10/02 12:28:49;;;;;;;3.20;0.50;;;;;;;;;;4948247;28;20046;-71
2022/10/02 12:31:20;;;;;;;0.82;0.40;;;;;;;;;;4979342;28;20046;-71
2022/10/02 12:34:02;;;;;;;0.47;0.30;;;;;;;;;;4990840;28;20720;-71
2022/10/02 12:36:43;;;;;;;6.78;0.50;;;;;;;;;;4988287;28;20058;-70
2022/10/02 12:39:11;;;;;;;0.40;0.40;;;;;;;;;;4980154;28;20131;-71
2022/10/02 12:41:59;;;;;;;0.50;0.40;;;;;;;;;;4981899;28;20044;-71
2022/10/02 12:44:31;;;;;;;0.30;0.30;;;;;;;;;;4963380;28;20128;-71
2022/10/02 12:47:08;;;;;;;0.60;0.40;;;;;;;;;;4979550;28;20046;-70
2022/10/02 12:49:46;;;;;;;0.43;0.30;;;;;;;;;;4979816;28;20084;-70
2022/10/02 12:52:53;;;;;;;1.55;0.63;;;;;;;;;;4976933;28;20053;-70
2022/10/02 12:55:46;;;;;;;0.25;0.25;;;;;;;;;;4995998;28;20601;-70
2022/10/02 12:58:44;;;;;;;0.20;0.17;;;;;;;;;;4961674;28;20050;-70
2022/10/02 13:01:57;;;;;;;1.85;0.20;;;;;;;;;;4968975;28;20057;-70
2022/10/02 13:05:00;;;;;;;1.75;0.20;;;;;;;;;;4949784;28;20046;-70
2022/10/02 13:08:17;;;;;;;0.75;0.20;;;;;;;;;;4960508;28;20053;-70
2022/10/02 13:10:48;;;;;;;0.45;0.25;;;;;;;;;;4943469;28;20054;-70
2022/10/02 13:13:25;;;;;;;;;;;;;;;;;;4979816;28;20057;-70
2022/10/02 13:16:02;;;;;;;0.30;0.30;;;;;;;;;;4978646;28;19922;-70
2022/10/02 13:18:42;;;;;;;0.30;0.30;;;;;;;;;;4993213;28;20144;-71
2022/10/02 13:21:17;;;;;;;0.32;0.20;;;;;;;;;;4990041;28;20089;-70
2022/10/02 13:24:01;;;;;;;0.70;0.47;;;;;;;;;;4983478;28;20057;-70
2022/10/02 13:26:55;;;;;;;0.55;0.20;;;;;;;;;;4981490;28;20050;-70
2022/10/02 13:29:50;;;;;;;1.17;0.20;;;;;;;;;;4992449;28;20038;-70
2022/10/02 13:32:31;;;;;;;0.93;0.20;;;;;;;;;;4960038;28;20057;-69
2022/10/02 13:35:21;;;;;;;0.80;0.22;;;;;;;;;;4982595;28;20044;-70
2022/10/02 13:38:05;;;;;;;0.30;0.30;;;;;;;;;;4979219;28;20049;-70
2022/10/02 13:41:13;;;;;;;0.63;0.60;;;;;;;;;;4982930;28;20034;-69
2022/10/02 13:43:44;;;;;;;4.28;1.38;;;;;;;;;;4994728;28;20058;-70
2022/10/02 13:46:28;;;;;;;1.67;0.95;;;;;;;;;;4982336;28;20058;-70
2022/10/02 13:49:34;;;;;;;5.28;1.83;;;;;;;;;;4982516;28;20058;-70
2022/10/02 13:52:24;;;;;;;4.72;1.50;;;;;;;;;;5001101;28;20141;-69
2022/10/02 13:55:14;;;;;;;2.92;0.75;;;;;;;;;;4984251;28;20085;-70
2022/10/02 13:58:21;;;;;;;6.10;2.50;;;;;;;;;;4989384;28;20583;-71
2022/10/02 14:01:03;;;;;;;2.35;1.40;;;;;;;;;;4961009;28;20129;-70
2022/10/02 14:03:53;;;;;;;4.00;1.20;;;;;;;;;;4996097;28;20042;-70
2022/10/02 14:06:49;;;;;;;10.05;1.70;;;;;;;;;;4975018;28;20636;-71
2022/10/02 14:09:23;;;;;;;3.25;1.50;;;;;;;;;;4984823;28;20123;-72
2022/10/02 14:12:02;;;;;;;3.22;2.30;;;;;;;;;;4990106;28;20092;-71
2022/10/02 14:14:35;;;;;;;4.60;1.90;;;;;;;;;;4989054;28;20517;-71
2022/10/02 14:17:19;;;;;;;4.15;2.10;;;;;;;;;;4990149;28;20080;-71
2022/10/02 14:20:15;;;;;;;2.83;1.60;;;;;;;;;;4982865;28;20104;-71
2022/10/02 14:23:06;;;;;;;3.90;1.20;;;;;;;;;;4986680;28;20065;-71
2022/10/02 14:25:49;;;;;;;1.40;1.27;;;;;;;;;;4992668;28;20046;-71
2022/10/02 14:28:28;;;;;;;2.25;1.50;;;;;;;;;;4966109;28;20473;-72
2022/10/02 14:30:54;;;;;;;1.10;1.05;;;;;;;;;;4989781;28;20125;-73
2022/10/02 14:33:57;;;;;;;2.70;1.55;;;;;;;;;;4991326;28;20439;-73
2022/10/02 14:36:40;;;;;;;1.40;1.27;;;;;;;;;;4968783;28;20113;-73
2022/10/02 14:39:25;;;;;;;1.90;1.45;;;;;;;;;;4991768;28;20046;-72
2022/10/02 14:41:54;;;;;;;1.25;1.15;;;;;;;;;;4992823;28;20133;-72
2022/10/02 14:44:43;;;;;;;2.03;1.40;;;;;;;;;;4991046;28;20049;-72
2022/10/02 14:47:32;;;;;;;1.05;0.98;;;;;;;;;;4993207;28;20085;-72
2022/10/02 14:50:19;;;;;;;1.30;1.20;;;;;;;;;;4995115;28;20445;-72
2022/10/02 14:52:55;;;;;;;2.67;1.10;;;;;;;;;;4994051;28;20113;-72
2022/10/02 14:55:48;;;;;;;1.60;1.50;;;;;;;;;;4984529;28;20108;-72
2022/10/02 14:58:37;;;;;;;1.63;0.95;;;;;;;;;;4961554;28;20117;-72
2022/10/02 15:01:22;;;;;;;1.48;1.25;;;;;;;;;;4982760;28;20047;-73
2022/10/02 15:04:00;;;;;;;3.45;2.55;;;;;;;;;;4996329;28;20053;-71
2022/10/02 15:06:45;;;;;;;11.48;5.35;;;;;;;;;;4992936;28;20506;-71
2022/10/02 15:09:34;;;;;;;4.65;2.80;;;;;;;;;;4990098;28;20477;-71
2022/10/02 15:12:08;;;;;;;3.33;2.42;;;;;;;;;;4983780;28;20066;-71
2022/10/02 15:14:49;;;;;;;4.45;3.33;;;;;;;;;;4985270;28;20054;-71
2022/10/02 15:20:44;;;;;;;10.65;4.43;;;;;;;;;;4987828;28;20046;-71
2022/10/02 15:23:58;;;;;;;1.60;1.50;;;;;;;;;;4979097;28;20526;-69
2022/10/02 15:26:43;;;;;;;3.63;1.20;;;;;;;;;;4986062;28;20195;-69
2022/10/02 15:29:11;;;;;;;1.45;0.93;;;;;;;;;;4982337;28;20354;-71
2022/10/02 15:32:02;;;;;;;1.15;1.05;;;;;;;;;;4982097;28;20955;-71
2022/10/02 15:34:47;;;;;;;1.02;1.00;;;;;;;;;;4953425;28;20042;-71
2022/10/02 15:37:38;;;;;;;2.20;2.00;;;;;;;;;;4970676;28;20038;-72
2022/10/02 15:40:41;;;;;;;3.25;2.78;;;;;;;;;;4990472;28;20573;-71
2022/10/02 15:43:10;;;;;;;3.60;2.75;;;;;;;;;;4995345;28;20054;-71
2022/10/02 15:45:55;;;;;;;5.55;2.95;;;;;;;;;;4987379;28;20046;-71
2022/10/02 15:48:46;;;;;;;4.35;3.03;;;;;;;;;;4974064;28;20081;-72
2022/10/02 15:51:35;;;;;;;2.15;2.05;;;;;;;;;;4970461;28;20042;-71
2022/10/02 15:54:29;;;;;;;2.45;2.05;;;;;;;;;;4970859;28;20058;-72
2022/10/02 15:57:13;;;;;;;2.00;1.80;;;;;;;;;;4990046;28;20042;-69
2022/10/02 16:00:06;;;;;;;2.75;1.60;;;;;;;;;;4990242;28;20038;-72
2022/10/02 16:02:58;;;;;;;3.42;1.50;;;;;;;;;;4962956;28;20128;-70
2022/10/02 16:05:30;;;;;;;1.58;1.48;;;;;;;;;;4990279;28;20555;-68
2022/10/02 16:08:14;;;;;;;1.70;1.60;;;;;;;;;;4983233;28;20685;-69
2022/10/02 16:11:01;;;;;;;6.72;2.50;;;;;;;;;;4979447;28;20495;-70
2022/10/02 16:13:41;;;;;;;3.38;2.65;;;;;;;;;;4985276;28;20053;-69
2022/10/02 16:16:16;;;;;;;3.75;2.08;;;;;;;;;;4986504;28;20046;-69
2022/10/02 16:19:00;;;;;;;2.20;1.80;;;;;;;;;;4980140;28;20046;-69
2022/10/02 16:21:43;;;;;;;2.67;2.00;;;;;;;;;;4979538;28;20470;-69
2022/10/02 16:24:40;;;;;;;3.13;2.00;;;;;;;;;;4979361;28;20077;-69
2022/10/02 16:27:31;;;;;;;2.75;1.70;;;;;;;;;;4986515;28;20111;-69
2022/10/02 16:29:57;;;;;;;2.72;1.60;;;;;;;;;;4979516;28;20097;-69